createdAt,value
2022-12-31T00:00:11.143Z,474.65
2022-12-31T00:00:46.674Z,473.65
2022-12-31T00:01:19.713Z,473.52
2022-12-31T00:01:52.033Z,474.08
2022-12-31T00:02:24.490Z,477.92
2022-12-31T00:02:57.094Z,473.58
2022-12-31T00:03:29.930Z,477.70
2022-12-31T00:04:02.453Z,478.30
2022-12-31T00:04:34.783Z,478.23
2022-12-31T00:05:07.767Z,480.42
2022-12-31T00:05:40.071Z,478.42
2022-12-31T00:06:17.086Z,473.77
2022-12-31T00:06:49.887Z,481.27
2022-12-31T00:07:22.286Z,479.95
2022-12-31T00:07:55.015Z,480.08
2022-12-31T00:08:27.410Z,480.75
2022-12-31T00:09:00.962Z,473.85
2022-12-31T00:09:33.269Z,475.02
2022-12-31T00:10:05.796Z,474.05
2022-12-31T00:10:41.777Z,475.90
2022-12-31T00:11:14.550Z,470.30
2022-12-31T00:11:46.893Z,476.77
2022-12-31T00:12:19.174Z,468.52
2022-12-31T00:12:51.570Z,472.88
2022-12-31T00:13:23.899Z,478.05
2022-12-31T00:13:56.263Z,478.88
2022-12-31T00:14:28.606Z,476.70
2022-12-31T00:15:01.101Z,477.55
2022-12-31T00:15:33.564Z,476.17
2022-12-31T00:16:26.131Z,477.35
2022-12-31T00:16:58.521Z,477.55
2022-12-31T00:17:30.945Z,474.80
2022-12-31T00:18:03.331Z,477.52
2022-12-31T00:18:35.700Z,474.60
2022-12-31T00:19:09.216Z,475.65
2022-12-31T00:19:41.756Z,474.08
2022-12-31T00:20:14.113Z,478.48
2022-12-31T00:20:46.420Z,477.08
2022-12-31T00:21:19.224Z,476.52
2022-12-31T00:21:51.692Z,479.25
2022-12-31T00:22:24.052Z,477.20
2022-12-31T00:22:56.348Z,479.02
2022-12-31T00:23:28.607Z,469.38
2022-12-31T00:24:01.183Z,475.30
2022-12-31T00:24:36.056Z,477.38
2022-12-31T00:25:08.709Z,476.02
2022-12-31T00:25:41.108Z,478.10
2022-12-31T00:26:17.933Z,477.20
2022-12-31T00:26:50.622Z,474.63
2022-12-31T00:27:22.966Z,475.15
2022-12-31T00:27:56.021Z,473.10
2022-12-31T00:28:28.511Z,477.88
2022-12-31T00:29:01.893Z,478.92
2022-12-31T00:29:34.183Z,470.60
2022-12-31T00:30:06.964Z,477.00
2022-12-31T00:30:39.383Z,472.90
2022-12-31T00:31:15.586Z,477.40
2022-12-31T00:31:47.980Z,478.85
2022-12-31T00:32:20.239Z,477.60
2022-12-31T00:32:53.295Z,474.67
2022-12-31T00:33:25.673Z,479.40
2022-12-31T00:33:58.389Z,485.50
2022-12-31T00:34:30.986Z,476.33
2022-12-31T00:35:03.473Z,472.75
2022-12-31T00:35:36.613Z,474.75
2022-12-31T00:36:16.057Z,479.52
2022-12-31T00:36:48.896Z,475.35
2022-12-31T00:37:21.215Z,483.15
2022-12-31T00:37:53.806Z,477.33
2022-12-31T00:38:26.148Z,476.40
2022-12-31T00:38:59.268Z,476.77
2022-12-31T00:39:31.611Z,479.67
2022-12-31T00:40:04.366Z,481.35
2022-12-31T00:40:36.659Z,479.98
2022-12-31T00:41:09.390Z,475.80
2022-12-31T00:41:44.243Z,479.55
2022-12-31T00:42:16.742Z,476.20
2022-12-31T00:42:49.247Z,475.67
2022-12-31T00:43:21.633Z,475.58
2022-12-31T00:43:54.196Z,475.63
2022-12-31T00:44:26.548Z,472.15
2022-12-31T00:44:58.927Z,476.98
2022-12-31T00:45:31.250Z,475.27
2022-12-31T00:46:04.205Z,474.35
2022-12-31T00:47:07.552Z,477.52
2022-12-31T00:47:39.853Z,476.20
2022-12-31T00:48:12.152Z,478.15
2022-12-31T00:48:44.816Z,476.42
2022-12-31T00:49:17.248Z,471.17
2022-12-31T00:49:49.675Z,470.70
2022-12-31T00:50:22.047Z,476.02
2022-12-31T00:50:55.024Z,477.90
2022-12-31T00:51:27.993Z,472.40
2022-12-31T00:52:00.422Z,478.95
2022-12-31T00:52:32.948Z,477.52
2022-12-31T00:53:05.277Z,477.67
2022-12-31T00:53:37.875Z,474.42
2022-12-31T00:54:10.407Z,473.33
2022-12-31T00:54:42.793Z,471.63
2022-12-31T00:55:15.184Z,476.25
2022-12-31T00:55:47.536Z,472.65
2022-12-31T00:56:21.017Z,475.15
2022-12-31T00:56:53.409Z,474.30
2022-12-31T00:57:25.902Z,476.08
2022-12-31T00:57:58.357Z,472.83
2022-12-31T00:58:30.740Z,473.40
2022-12-31T00:59:03.180Z,474.98
2022-12-31T00:59:35.869Z,478.20
2022-12-31T01:00:09.308Z,478.08
2022-12-31T01:00:41.825Z,473.05
2022-12-31T01:01:18.799Z,473.13
2022-12-31T01:01:51.446Z,473.80
2022-12-31T01:02:23.963Z,475.38
2022-12-31T01:02:56.564Z,473.92
2022-12-31T01:03:28.982Z,472.88
2022-12-31T01:04:06.466Z,470.67
2022-12-31T01:04:38.763Z,467.55
2022-12-31T01:05:11.130Z,472.73
2022-12-31T01:05:43.413Z,466.38
2022-12-31T01:06:16.727Z,474.00
2022-12-31T01:06:49.440Z,469.30
2022-12-31T01:07:21.736Z,466.73
2022-12-31T01:07:54.457Z,468.38
2022-12-31T01:08:27.092Z,468.67
2022-12-31T01:08:59.514Z,468.38
2022-12-31T01:09:31.844Z,469.58
2022-12-31T01:10:04.528Z,467.50
2022-12-31T01:10:55.394Z,465.58
2022-12-31T01:11:30.646Z,469.20
2022-12-31T01:12:03.729Z,462.65
2022-12-31T01:12:36.063Z,468.02
2022-12-31T01:13:09.036Z,471.30
2022-12-31T01:13:41.329Z,473.05
2022-12-31T01:14:14.949Z,468.73
2022-12-31T01:14:47.282Z,473.13
2022-12-31T01:15:19.546Z,470.25
2022-12-31T01:15:51.846Z,471.00
2022-12-31T01:16:25.566Z,468.33
2022-12-31T01:16:57.881Z,471.58
2022-12-31T01:17:30.290Z,471.42
2022-12-31T01:18:06.571Z,469.83
2022-12-31T01:18:39.323Z,472.58
2022-12-31T01:19:16.166Z,471.85
2022-12-31T01:19:48.503Z,473.92
2022-12-31T01:20:21.044Z,466.40
2022-12-31T01:20:53.367Z,473.48
2022-12-31T01:21:25.838Z,475.38
2022-12-31T01:21:58.138Z,470.55
2022-12-31T01:22:30.559Z,474.52
2022-12-31T01:23:02.879Z,469.50
2022-12-31T01:23:35.603Z,461.98
2022-12-31T01:24:08.559Z,464.98
2022-12-31T01:24:40.882Z,465.25
2022-12-31T01:25:13.164Z,467.83
2022-12-31T01:25:45.624Z,467.40
2022-12-31T01:26:18.468Z,458.02
2022-12-31T01:26:51.565Z,461.55
2022-12-31T01:27:23.868Z,462.05
2022-12-31T01:27:56.191Z,460.88
2022-12-31T01:28:29.145Z,464.65
2022-12-31T01:29:01.460Z,467.55
2022-12-31T01:29:34.125Z,461.85
2022-12-31T01:30:06.704Z,466.67
2022-12-31T01:30:40.058Z,469.27
2022-12-31T01:31:14.223Z,464.08
2022-12-31T01:31:46.817Z,463.73
2022-12-31T01:32:19.127Z,466.27
2022-12-31T01:32:51.429Z,461.38
2022-12-31T01:33:24.182Z,462.13
2022-12-31T01:33:58.416Z,464.15
2022-12-31T01:34:30.782Z,464.38
2022-12-31T01:35:03.076Z,463.15
2022-12-31T01:35:36.373Z,466.05
2022-12-31T01:36:10.731Z,465.27
2022-12-31T01:36:43.250Z,464.63
2022-12-31T01:37:15.580Z,466.17
2022-12-31T01:37:47.876Z,464.70
2022-12-31T01:38:20.260Z,467.80
2022-12-31T01:38:52.651Z,468.85
2022-12-31T01:39:24.984Z,466.83
2022-12-31T01:39:57.296Z,460.77
2022-12-31T01:40:29.694Z,465.77
2022-12-31T01:41:02.428Z,467.15
2022-12-31T01:41:38.898Z,463.33
2022-12-31T01:42:12.292Z,471.00
2022-12-31T01:42:44.810Z,462.15
2022-12-31T01:43:18.348Z,464.48
2022-12-31T01:43:54.583Z,460.10
2022-12-31T01:44:26.833Z,470.95
2022-12-31T01:44:59.125Z,461.50
2022-12-31T01:45:31.492Z,469.10
2022-12-31T01:46:03.843Z,469.33
2022-12-31T01:46:39.558Z,468.35
2022-12-31T01:47:18.259Z,470.63
2022-12-31T01:47:52.259Z,467.63
2022-12-31T01:48:26.687Z,470.00
2022-12-31T01:49:19.190Z,471.77
2022-12-31T01:49:54.266Z,471.92
2022-12-31T01:50:30.864Z,472.65
2022-12-31T01:51:03.419Z,471.05
2022-12-31T01:51:36.851Z,469.73
2022-12-31T01:52:11.862Z,467.90
2022-12-31T01:52:48.695Z,473.83
2022-12-31T01:53:21.626Z,471.60
2022-12-31T01:53:55.052Z,471.33
2022-12-31T01:54:28.199Z,465.17
2022-12-31T01:55:06.084Z,471.90
2022-12-31T01:55:50.430Z,473.50
2022-12-31T01:56:23.193Z,470.20
2022-12-31T01:56:56.575Z,469.33
2022-12-31T01:57:29.001Z,468.40
2022-12-31T01:58:21.807Z,472.83
2022-12-31T01:58:56.062Z,465.95
2022-12-31T01:59:29.411Z,468.63
2022-12-31T02:00:02.163Z,471.15
2022-12-31T02:00:37.628Z,469.40
2022-12-31T02:01:10.384Z,467.55
2022-12-31T02:01:42.931Z,470.48
2022-12-31T02:02:16.032Z,467.63
2022-12-31T02:02:48.747Z,462.15
2022-12-31T02:03:22.292Z,462.13
2022-12-31T02:03:56.559Z,461.83
2022-12-31T02:04:29.386Z,465.52
2022-12-31T02:05:02.849Z,462.30
2022-12-31T02:05:35.304Z,462.63
2022-12-31T02:06:07.661Z,467.27
2022-12-31T02:07:09.454Z,471.50
2022-12-31T02:07:42.154Z,463.65
2022-12-31T02:08:14.805Z,466.23
2022-12-31T02:08:47.636Z,475.70
2022-12-31T02:09:20.176Z,482.15
2022-12-31T02:09:53.712Z,475.83
2022-12-31T02:10:26.269Z,477.48
2022-12-31T02:10:58.729Z,476.60
2022-12-31T02:11:34.740Z,476.65
2022-12-31T02:12:08.115Z,470.30
2022-12-31T02:12:40.592Z,473.08
2022-12-31T02:13:13.335Z,466.83
2022-12-31T02:13:45.607Z,466.70
2022-12-31T02:14:48.037Z,467.30
2022-12-31T02:15:23.557Z,472.77
2022-12-31T02:16:18.478Z,474.80
2022-12-31T02:17:03.400Z,477.58
2022-12-31T02:17:59.542Z,464.38
2022-12-31T02:18:31.868Z,472.02
2022-12-31T02:19:22.878Z,465.42
2022-12-31T02:20:01.370Z,471.45
2022-12-31T02:20:39.426Z,467.55
2022-12-31T02:21:11.725Z,467.65
2022-12-31T02:21:59.115Z,470.05
2022-12-31T02:22:46.734Z,471.23
2022-12-31T02:23:24.840Z,466.67
2022-12-31T02:24:21.393Z,455.08
2022-12-31T02:24:56.759Z,464.40
2022-12-31T02:25:39.939Z,462.80
2022-12-31T02:26:28.510Z,459.27
2022-12-31T02:27:05.467Z,463.77
2022-12-31T02:27:56.435Z,467.13
2022-12-31T02:28:47.486Z,460.45
2022-12-31T02:29:41.720Z,465.42
2022-12-31T02:30:21.345Z,462.67
2022-12-31T02:31:00.769Z,455.05
2022-12-31T02:31:34.924Z,455.40
2022-12-31T02:32:15.610Z,470.63
2022-12-31T02:32:50.853Z,468.45
2022-12-31T02:33:28.233Z,468.20
2022-12-31T02:34:08.606Z,465.13
2022-12-31T02:34:44.307Z,466.88
2022-12-31T02:35:21.052Z,467.58
2022-12-31T02:35:58.641Z,464.88
2022-12-31T02:36:34.453Z,460.60
2022-12-31T02:37:08.382Z,456.52
2022-12-31T02:37:42.316Z,463.70
2022-12-31T02:38:17.099Z,458.98
2022-12-31T02:38:49.964Z,458.90
2022-12-31T02:39:22.617Z,455.60
2022-12-31T02:39:55.400Z,461.10
2022-12-31T02:40:27.957Z,458.45
2022-12-31T02:41:00.657Z,466.25
2022-12-31T02:41:51.325Z,460.63
2022-12-31T02:42:23.685Z,463.00
2022-12-31T02:42:56.415Z,465.58
2022-12-31T02:43:29.117Z,461.52
2022-12-31T02:44:01.475Z,461.00
2022-12-31T02:44:35.569Z,464.17
2022-12-31T02:45:08.308Z,462.38
2022-12-31T02:45:42.675Z,462.95
2022-12-31T02:46:27.809Z,470.15
2022-12-31T02:47:03.400Z,463.70
2022-12-31T02:47:44.728Z,459.08
2022-12-31T02:48:46.103Z,467.85
2022-12-31T02:49:27.882Z,467.13
2022-12-31T02:50:18.659Z,470.67
2022-12-31T02:50:57.794Z,464.63
2022-12-31T02:51:48.886Z,465.58
2022-12-31T02:52:27.283Z,463.90
2022-12-31T02:53:05.423Z,466.50
2022-12-31T02:53:37.994Z,468.60
2022-12-31T02:54:10.263Z,465.10
2022-12-31T02:54:45.468Z,463.02
2022-12-31T02:55:29.721Z,464.95
2022-12-31T02:56:02.157Z,460.48
2022-12-31T02:56:54.896Z,461.88
2022-12-31T02:57:30.972Z,457.45
2022-12-31T02:58:20.308Z,463.40
2022-12-31T02:59:17.198Z,456.83
2022-12-31T03:00:11.398Z,468.13
2022-12-31T03:01:08.292Z,460.23
2022-12-31T03:02:02.066Z,472.58
2022-12-31T03:02:36.156Z,454.63
2022-12-31T03:03:09.156Z,468.58
2022-12-31T03:03:41.784Z,455.80
2022-12-31T03:04:32.726Z,463.33
2022-12-31T03:05:05.483Z,463.15
2022-12-31T03:05:39.478Z,462.13
2022-12-31T03:06:12.383Z,464.58
2022-12-31T03:06:44.681Z,461.00
2022-12-31T03:07:24.128Z,459.30
2022-12-31T03:07:56.735Z,454.80
2022-12-31T03:08:29.131Z,463.42
2022-12-31T03:09:14.408Z,457.25
2022-12-31T03:09:47.142Z,466.02
2022-12-31T03:10:19.617Z,463.40
2022-12-31T03:10:52.341Z,463.58
2022-12-31T03:11:42.883Z,463.50
2022-12-31T03:12:34.239Z,461.85
2022-12-31T03:13:06.598Z,469.13
2022-12-31T03:13:38.881Z,466.85
2022-12-31T03:14:11.170Z,465.45
2022-12-31T03:14:43.593Z,465.42
2022-12-31T03:15:26.057Z,462.48
2022-12-31T03:15:58.661Z,469.63
2022-12-31T03:16:31.000Z,469.40
2022-12-31T03:17:03.432Z,465.15
2022-12-31T03:17:35.747Z,464.55
2022-12-31T03:18:12.665Z,466.52
2022-12-31T03:19:03.610Z,468.40
2022-12-31T03:19:54.463Z,471.90
2022-12-31T03:20:47.430Z,464.88
2022-12-31T03:21:38.437Z,475.25
2022-12-31T03:22:28.401Z,464.05
2022-12-31T03:23:00.894Z,473.73
2022-12-31T03:23:38.378Z,460.77
2022-12-31T03:24:29.749Z,474.48
2022-12-31T03:25:22.418Z,472.73
2022-12-31T03:25:56.671Z,481.17
2022-12-31T03:26:28.945Z,468.02
2022-12-31T03:27:01.345Z,468.25
2022-12-31T03:27:33.669Z,469.83
2022-12-31T03:28:10.170Z,469.45
2022-12-31T03:28:43.370Z,476.98
2022-12-31T03:29:15.887Z,474.35
2022-12-31T03:29:48.900Z,477.10
2022-12-31T03:30:22.062Z,471.92
2022-12-31T03:30:55.857Z,474.25
2022-12-31T03:31:28.189Z,472.20
2022-12-31T03:32:00.855Z,465.20
2022-12-31T03:32:34.005Z,475.42
2022-12-31T03:33:07.512Z,468.05
2022-12-31T03:33:40.829Z,467.13
2022-12-31T03:34:13.420Z,464.42
2022-12-31T03:34:45.699Z,471.17
2022-12-31T03:35:21.465Z,477.73
2022-12-31T03:35:53.936Z,463.20
2022-12-31T03:36:26.264Z,472.90
2022-12-31T03:36:58.568Z,473.73
2022-12-31T03:37:30.877Z,468.08
2022-12-31T03:38:04.055Z,473.13
2022-12-31T03:38:36.500Z,474.55
2022-12-31T03:39:08.781Z,467.98
2022-12-31T03:39:41.161Z,475.98
2022-12-31T03:40:14.144Z,479.45
2022-12-31T03:40:48.052Z,477.50
2022-12-31T03:41:20.371Z,476.73
2022-12-31T03:41:52.685Z,476.10
2022-12-31T03:42:25.468Z,477.92
2022-12-31T03:42:57.908Z,476.05
2022-12-31T03:43:30.380Z,477.50
2022-12-31T03:44:02.860Z,473.70
2022-12-31T03:44:35.773Z,474.33
2022-12-31T03:45:08.590Z,469.17
2022-12-31T03:45:41.116Z,470.75
2022-12-31T03:46:13.553Z,476.00
2022-12-31T03:46:45.895Z,472.02
2022-12-31T03:47:18.181Z,477.15
2022-12-31T03:47:50.488Z,477.08
2022-12-31T03:48:23.303Z,473.92
2022-12-31T03:48:55.661Z,474.00
2022-12-31T03:49:28.172Z,464.98
2022-12-31T03:50:00.741Z,461.00
2022-12-31T03:50:33.240Z,469.45
2022-12-31T03:51:05.721Z,470.42
2022-12-31T03:51:38.311Z,470.58
2022-12-31T03:52:10.689Z,464.98
2022-12-31T03:52:43.451Z,471.73
2022-12-31T03:53:15.977Z,472.25
2022-12-31T03:53:48.425Z,473.70
2022-12-31T03:54:20.976Z,474.30
2022-12-31T03:54:53.364Z,473.08
2022-12-31T03:55:25.678Z,473.45
2022-12-31T03:55:58.015Z,469.13
2022-12-31T03:56:30.351Z,471.80
2022-12-31T03:57:02.649Z,470.90
2022-12-31T03:57:35.009Z,472.13
2022-12-31T03:58:07.698Z,469.23
2022-12-31T03:58:40.022Z,472.92
2022-12-31T03:59:12.445Z,469.77
2022-12-31T03:59:44.785Z,472.98
2022-12-31T04:00:21.398Z,473.00
2022-12-31T04:00:53.725Z,471.70
2022-12-31T04:01:26.737Z,468.50
2022-12-31T04:01:59.229Z,470.08
2022-12-31T04:02:31.899Z,471.90
2022-12-31T04:03:04.415Z,469.45
2022-12-31T04:03:36.782Z,466.20
2022-12-31T04:04:09.693Z,468.98
2022-12-31T04:04:42.043Z,464.48
2022-12-31T04:05:15.170Z,469.10
2022-12-31T04:05:54.288Z,466.77
2022-12-31T04:06:26.580Z,462.33
2022-12-31T04:06:59.107Z,464.58
2022-12-31T04:07:31.604Z,467.63
2022-12-31T04:08:04.086Z,465.80
2022-12-31T04:08:36.348Z,464.25
2022-12-31T04:09:08.630Z,469.08
2022-12-31T04:09:41.170Z,468.05
2022-12-31T04:10:14.601Z,469.50
2022-12-31T04:10:46.902Z,466.80
2022-12-31T04:11:21.110Z,471.25
2022-12-31T04:11:53.819Z,471.25
2022-12-31T04:12:26.121Z,470.33
2022-12-31T04:13:00.503Z,464.02
2022-12-31T04:13:33.127Z,470.25
2022-12-31T04:14:05.466Z,471.67
2022-12-31T04:14:37.825Z,471.95
2022-12-31T04:15:10.907Z,470.40
2022-12-31T04:15:43.297Z,468.88
2022-12-31T04:16:15.638Z,471.20
2022-12-31T04:16:47.984Z,475.33
2022-12-31T04:17:20.309Z,477.85
2022-12-31T04:17:52.857Z,478.63
2022-12-31T04:18:25.306Z,482.55
2022-12-31T04:18:57.983Z,480.75
2022-12-31T04:19:30.309Z,478.38
2022-12-31T04:20:03.371Z,479.88
2022-12-31T04:20:35.763Z,476.75
2022-12-31T04:21:08.063Z,476.92
2022-12-31T04:21:40.418Z,477.13
2022-12-31T04:22:12.900Z,474.80
2022-12-31T04:22:45.270Z,475.38
2022-12-31T04:23:17.725Z,473.02
2022-12-31T04:23:50.206Z,476.02
2022-12-31T04:24:23.795Z,475.95
2022-12-31T04:24:56.098Z,473.90
2022-12-31T04:25:28.483Z,475.42
2022-12-31T04:26:01.049Z,476.08
2022-12-31T04:26:33.485Z,470.77
2022-12-31T04:27:07.994Z,477.83
2022-12-31T04:27:41.070Z,475.92
2022-12-31T04:28:14.969Z,473.45
2022-12-31T04:28:48.518Z,472.10
2022-12-31T04:29:20.858Z,476.65
2022-12-31T04:29:53.141Z,464.10
2022-12-31T04:30:25.440Z,473.40
2022-12-31T04:30:57.784Z,478.33
2022-12-31T04:31:30.129Z,473.70
2022-12-31T04:32:02.926Z,474.60
2022-12-31T04:32:35.346Z,469.35
2022-12-31T04:33:07.619Z,471.48
2022-12-31T04:33:40.343Z,476.42
2022-12-31T04:34:12.787Z,472.27
2022-12-31T04:34:45.540Z,476.63
2022-12-31T04:35:18.232Z,476.63
2022-12-31T04:35:50.513Z,478.45
2022-12-31T04:36:22.854Z,476.27
2022-12-31T04:36:55.186Z,474.83
2022-12-31T04:37:27.546Z,475.52
2022-12-31T04:37:59.864Z,471.75
2022-12-31T04:38:32.389Z,473.30
2022-12-31T04:39:04.742Z,470.27
2022-12-31T04:39:37.071Z,476.92
2022-12-31T04:40:10.176Z,473.65
2022-12-31T04:41:02.807Z,462.63
2022-12-31T04:41:35.218Z,478.40
2022-12-31T04:42:07.603Z,475.25
2022-12-31T04:42:39.909Z,475.58
2022-12-31T04:43:12.187Z,477.08
2022-12-31T04:43:46.087Z,479.75
2022-12-31T04:44:18.779Z,476.42
2022-12-31T04:44:51.155Z,475.10
2022-12-31T04:45:23.461Z,476.40
2022-12-31T04:45:55.872Z,478.63
2022-12-31T04:46:29.804Z,476.98
2022-12-31T04:47:02.359Z,470.88
2022-12-31T04:47:34.775Z,475.00
2022-12-31T04:48:07.057Z,472.40
2022-12-31T04:48:39.320Z,474.13
2022-12-31T04:49:11.787Z,475.88
2022-12-31T04:49:44.163Z,478.20
2022-12-31T04:50:16.577Z,472.67
2022-12-31T04:50:49.016Z,473.73
2022-12-31T04:51:22.158Z,479.52
2022-12-31T04:51:54.467Z,476.38
2022-12-31T04:52:26.797Z,474.27
2022-12-31T04:52:59.111Z,475.88
2022-12-31T04:53:31.621Z,471.25
2022-12-31T04:54:04.600Z,474.25
2022-12-31T04:54:37.063Z,473.55
2022-12-31T04:55:10.120Z,468.90
2022-12-31T04:55:42.491Z,464.25
2022-12-31T04:56:15.132Z,471.02
2022-12-31T04:56:49.744Z,469.75
2022-12-31T04:57:22.082Z,474.02
2022-12-31T04:57:54.390Z,470.42
2022-12-31T04:58:26.692Z,461.98
2022-12-31T04:58:59.094Z,466.58
2022-12-31T04:59:31.351Z,465.92
2022-12-31T05:00:04.225Z,466.42
2022-12-31T05:00:36.589Z,469.70
2022-12-31T05:01:09.685Z,474.35
2022-12-31T05:01:43.336Z,469.95
2022-12-31T05:02:15.795Z,473.77
2022-12-31T05:02:49.552Z,472.52
2022-12-31T05:03:23.344Z,469.20
2022-12-31T05:03:55.746Z,471.02
2022-12-31T05:04:28.458Z,471.52
2022-12-31T05:05:00.747Z,470.70
2022-12-31T05:05:33.175Z,473.90
2022-12-31T05:06:13.456Z,469.35
2022-12-31T05:06:45.899Z,465.23
2022-12-31T05:07:18.275Z,467.65
2022-12-31T05:07:51.811Z,467.58
2022-12-31T05:08:24.108Z,468.58
2022-12-31T05:08:56.712Z,464.17
2022-12-31T05:09:29.196Z,470.35
2022-12-31T05:10:01.531Z,463.17
2022-12-31T05:10:33.845Z,469.13
2022-12-31T05:11:06.164Z,469.48
2022-12-31T05:11:39.510Z,468.58
2022-12-31T05:12:11.842Z,469.70
2022-12-31T05:12:44.157Z,470.23
2022-12-31T05:13:16.543Z,470.83
2022-12-31T05:13:48.870Z,471.33
2022-12-31T05:14:21.189Z,464.88
2022-12-31T05:14:53.557Z,472.30
2022-12-31T05:15:25.858Z,464.70
2022-12-31T05:15:58.183Z,467.95
2022-12-31T05:16:30.564Z,468.80
2022-12-31T05:17:02.901Z,471.73
2022-12-31T05:17:35.350Z,472.83
2022-12-31T05:18:07.769Z,465.70
2022-12-31T05:18:40.118Z,470.73
2022-12-31T05:19:12.687Z,470.20
2022-12-31T05:19:45.217Z,471.75
2022-12-31T05:20:17.619Z,473.80
2022-12-31T05:20:50.221Z,475.52
2022-12-31T05:21:22.575Z,470.27
2022-12-31T05:22:13.584Z,471.55
2022-12-31T05:22:45.929Z,479.83
2022-12-31T05:23:18.392Z,472.65
2022-12-31T05:23:50.936Z,477.48
2022-12-31T05:24:23.321Z,472.85
2022-12-31T05:24:56.066Z,471.80
2022-12-31T05:25:29.354Z,475.60
2022-12-31T05:26:02.090Z,475.33
2022-12-31T05:26:34.516Z,475.10
2022-12-31T05:27:06.980Z,476.85
2022-12-31T05:27:39.254Z,474.40
2022-12-31T05:28:11.661Z,467.63
2022-12-31T05:28:44.108Z,476.70
2022-12-31T05:29:16.452Z,473.65
2022-12-31T05:29:48.830Z,476.05
2022-12-31T05:30:21.516Z,470.05
2022-12-31T05:30:53.947Z,468.17
2022-12-31T05:31:26.676Z,471.08
2022-12-31T05:32:00.006Z,475.13
2022-12-31T05:32:32.415Z,472.45
2022-12-31T05:33:04.943Z,476.42
2022-12-31T05:33:37.333Z,472.02
2022-12-31T05:34:09.761Z,471.75
2022-12-31T05:34:42.158Z,473.13
2022-12-31T05:35:14.722Z,478.23
2022-12-31T05:35:47.075Z,475.50
2022-12-31T05:36:19.390Z,474.83
2022-12-31T05:36:51.839Z,474.63
2022-12-31T05:37:24.189Z,476.65
2022-12-31T05:37:56.521Z,476.95
2022-12-31T05:38:29.030Z,475.73
2022-12-31T05:39:01.351Z,467.42
2022-12-31T05:39:33.867Z,475.00
2022-12-31T05:40:06.790Z,477.65
2022-12-31T05:40:39.132Z,477.02
2022-12-31T05:41:11.683Z,478.17
2022-12-31T05:41:44.068Z,475.92
2022-12-31T05:42:16.537Z,475.50
2022-12-31T05:42:50.031Z,475.23
2022-12-31T05:43:22.491Z,475.02
2022-12-31T05:43:54.828Z,473.25
2022-12-31T05:44:27.193Z,472.30
2022-12-31T05:44:59.632Z,475.15
2022-12-31T05:45:31.900Z,476.23
2022-12-31T05:46:05.330Z,463.52
2022-12-31T05:46:37.721Z,470.83
2022-12-31T05:47:10.201Z,469.50
2022-12-31T05:47:43.016Z,476.65
2022-12-31T05:48:15.322Z,475.20
2022-12-31T05:48:47.657Z,473.50
2022-12-31T05:49:19.986Z,468.95
2022-12-31T05:49:52.356Z,474.52
2022-12-31T05:50:24.924Z,470.25
2022-12-31T05:51:01.424Z,475.15
2022-12-31T05:51:33.744Z,471.50
2022-12-31T05:52:06.935Z,474.80
2022-12-31T05:52:42.713Z,475.80
2022-12-31T05:53:18.055Z,475.83
2022-12-31T05:53:50.335Z,474.20
2022-12-31T05:54:23.057Z,475.15
2022-12-31T05:54:55.384Z,475.60
2022-12-31T05:55:28.396Z,472.25
2022-12-31T05:56:00.710Z,472.25
2022-12-31T05:56:33.139Z,471.88
2022-12-31T05:57:06.571Z,474.35
2022-12-31T05:57:39.304Z,472.65
2022-12-31T05:58:13.199Z,470.10
2022-12-31T05:58:45.460Z,469.23
2022-12-31T05:59:17.731Z,465.52
2022-12-31T05:59:50.469Z,468.42
2022-12-31T06:00:23.231Z,471.90
2022-12-31T06:00:55.549Z,473.90
2022-12-31T06:01:27.919Z,474.92
2022-12-31T06:02:01.631Z,467.58
2022-12-31T06:02:33.940Z,474.00
2022-12-31T06:03:06.343Z,472.83
2022-12-31T06:03:38.752Z,475.25
2022-12-31T06:04:11.142Z,474.58
2022-12-31T06:04:43.439Z,474.85
2022-12-31T06:05:17.734Z,473.40
2022-12-31T06:05:53.540Z,476.30
2022-12-31T06:06:26.061Z,479.63
2022-12-31T06:06:58.392Z,476.75
2022-12-31T06:07:30.744Z,478.42
2022-12-31T06:08:03.115Z,479.80
2022-12-31T06:08:35.513Z,476.55
2022-12-31T06:09:10.241Z,477.13
2022-12-31T06:09:42.599Z,477.20
2022-12-31T06:10:14.950Z,472.42
2022-12-31T06:10:47.866Z,478.63
2022-12-31T06:11:20.217Z,480.27
2022-12-31T06:11:52.542Z,476.08
2022-12-31T06:12:24.959Z,475.83
2022-12-31T06:12:57.306Z,477.02
2022-12-31T06:13:29.855Z,476.95
2022-12-31T06:14:03.370Z,475.55
2022-12-31T06:14:39.566Z,480.08
2022-12-31T06:15:14.564Z,479.55
2022-12-31T06:15:46.880Z,478.77
2022-12-31T06:16:19.267Z,476.42
2022-12-31T06:16:51.778Z,477.25
2022-12-31T06:17:24.273Z,480.75
2022-12-31T06:17:56.893Z,469.58
2022-12-31T06:18:29.186Z,472.15
2022-12-31T06:19:02.931Z,480.02
2022-12-31T06:19:35.752Z,477.13
2022-12-31T06:20:12.721Z,478.60
2022-12-31T06:20:45.778Z,479.42
2022-12-31T06:21:18.265Z,480.40
2022-12-31T06:21:50.591Z,482.65
2022-12-31T06:22:23.078Z,480.13
2022-12-31T06:22:55.346Z,475.80
2022-12-31T06:23:27.940Z,480.23
2022-12-31T06:24:00.288Z,482.65
2022-12-31T06:24:32.979Z,482.15
2022-12-31T06:25:05.698Z,476.52
2022-12-31T06:25:38.129Z,476.27
2022-12-31T06:26:10.445Z,476.42
2022-12-31T06:26:42.753Z,479.35
2022-12-31T06:27:15.294Z,480.70
2022-12-31T06:27:47.644Z,480.73
2022-12-31T06:28:20.680Z,473.92
2022-12-31T06:28:53.819Z,469.65
2022-12-31T06:29:26.118Z,483.42
2022-12-31T06:29:58.480Z,481.52
2022-12-31T06:30:30.897Z,485.45
2022-12-31T06:31:04.509Z,485.70
2022-12-31T06:31:37.115Z,487.85
2022-12-31T06:32:09.480Z,483.95
2022-12-31T06:32:42.334Z,482.65
2022-12-31T06:33:14.655Z,476.90
2022-12-31T06:33:49.812Z,480.08
2022-12-31T06:34:22.091Z,472.05
2022-12-31T06:34:54.806Z,485.80
2022-12-31T06:35:27.568Z,475.25
2022-12-31T06:36:01.719Z,480.60
2022-12-31T06:36:34.051Z,475.75
2022-12-31T06:37:06.383Z,480.08
2022-12-31T06:37:38.810Z,473.50
2022-12-31T06:38:11.076Z,469.48
2022-12-31T06:38:43.868Z,471.20
2022-12-31T06:39:16.421Z,472.05
2022-12-31T06:39:49.099Z,466.27
2022-12-31T06:40:21.742Z,474.45
2022-12-31T06:40:55.445Z,472.90
2022-12-31T06:41:27.898Z,474.08
2022-12-31T06:42:00.306Z,471.42
2022-12-31T06:42:32.659Z,464.30
2022-12-31T06:43:07.103Z,478.65
2022-12-31T06:43:40.051Z,471.42
2022-12-31T06:44:12.474Z,469.42
2022-12-31T06:44:44.760Z,475.60
2022-12-31T06:45:17.216Z,466.10
2022-12-31T06:45:49.610Z,468.92
2022-12-31T06:46:22.041Z,464.40
2022-12-31T06:46:55.546Z,460.90
2022-12-31T06:47:27.911Z,462.63
2022-12-31T06:48:00.178Z,471.55
2022-12-31T06:48:32.747Z,472.98
2022-12-31T06:49:05.117Z,474.23
2022-12-31T06:49:37.465Z,470.30
2022-12-31T06:50:10.141Z,473.58
2022-12-31T06:50:43.318Z,476.30
2022-12-31T06:51:18.521Z,468.80
2022-12-31T06:51:50.917Z,476.50
2022-12-31T06:52:23.314Z,475.38
2022-12-31T06:52:55.641Z,472.40
2022-12-31T06:53:28.126Z,474.55
2022-12-31T06:54:00.759Z,475.77
2022-12-31T06:54:33.262Z,472.75
2022-12-31T06:55:05.982Z,476.55
2022-12-31T06:55:38.474Z,477.83
2022-12-31T06:56:14.877Z,475.85
2022-12-31T06:56:47.313Z,474.38
2022-12-31T06:57:19.839Z,464.02
2022-12-31T06:57:52.304Z,469.23
2022-12-31T06:58:24.769Z,476.10
2022-12-31T06:58:57.238Z,474.80
2022-12-31T06:59:31.724Z,474.45
2022-12-31T07:00:04.316Z,470.77
2022-12-31T07:00:37.367Z,467.38
2022-12-31T07:01:30.042Z,477.50
2022-12-31T07:02:07.831Z,468.73
2022-12-31T07:02:58.551Z,473.17
2022-12-31T07:03:45.864Z,478.85
2022-12-31T07:04:33.274Z,474.42
2022-12-31T07:05:06.730Z,474.50
2022-12-31T07:06:01.853Z,466.38
2022-12-31T07:06:37.167Z,473.75
2022-12-31T07:07:09.518Z,479.98
2022-12-31T07:07:47.635Z,471.58
2022-12-31T07:08:38.423Z,469.60